sensor_id;sensor_type;location;lat;lon;timestamp;P1;durP1;ratioP1;P2;durP2;ratioP2
20749;SDS011;10535;50.664;4.564;2023-04-25T00:01:00;7.27;;;2.73;;
20749;SDS011;10535;50.664;4.564;2023-04-25T00:03:27;11.10;;;2.93;;
20749;SDS011;10535;50.664;4.564;2023-04-25T00:05:54;9.43;;;3.43;;
20749;SDS011;10535;50.664;4.564;2023-04-25T00:08:21;16.03;;;3.47;;
20749;SDS011;10535;50.664;4.564;2023-04-25T00:10:47;12.07;;;2.83;;
20749;SDS011;10535;50.664;4.564;2023-04-25T00:13:14;9.40;;;2.77;;
20749;SDS011;10535;50.664;4.564;2023-04-25T00:15:40;6.70;;;2.63;;
20749;SDS011;10535;50.664;4.564;2023-04-25T00:18:06;4.63;;;2.83;;
20749;SDS011;10535;50.664;4.564;2023-04-25T00:20:32;8.03;;;3.43;;
20749;SDS011;10535;50.664;4.564;2023-04-25T00:22:58;6.80;;;2.77;;
20749;SDS011;10535;50.664;4.564;2023-04-25T00:25:24;7.10;;;3.43;;
20749;SDS011;10535;50.664;4.564;2023-04-25T00:27:49;3.47;;;2.47;;
20749;SDS011;10535;50.664;4.564;2023-04-25T00:30:15;4.83;;;2.67;;
20749;SDS011;10535;50.664;4.564;2023-04-25T00:32:41;11.27;;;3.77;;
20749;SDS011;10535;50.664;4.564;2023-04-25T00:35:06;12.60;;;3.27;;
20749;SDS011;10535;50.664;4.564;2023-04-25T00:37:32;10.07;;;2.73;;
20749;SDS011;10535;50.664;4.564;2023-04-25T00:39:58;9.83;;;4.03;;
20749;SDS011;10535;50.664;4.564;2023-04-25T00:42:24;7.70;;;2.80;;
20749;SDS011;10535;50.664;4.564;2023-04-25T00:44:51;7.27;;;2.93;;
20749;SDS011;10535;50.664;4.564;2023-04-25T00:47:17;8.93;;;3.13;;
20749;SDS011;10535;50.664;4.564;2023-04-25T00:49:43;14.03;;;2.93;;
20749;SDS011;10535;50.664;4.564;2023-04-25T00:52:09;12.43;;;2.57;;
20749;SDS011;10535;50.664;4.564;2023-04-25T00:54:36;8.40;;;3.17;;
20749;SDS011;10535;50.664;4.564;2023-04-25T00:57:02;9.23;;;2.83;;
20749;SDS011;10535;50.664;4.564;2023-04-25T00:59:28;8.47;;;2.60;;
20749;SDS011;10535;50.664;4.564;2023-04-25T01:01:55;9.23;;;2.87;;
20749;SDS011;10535;50.664;4.564;2023-04-25T01:04:23;8.97;;;3.13;;
20749;SDS011;10535;50.664;4.564;2023-04-25T01:06:49;10.07;;;3.10;;
20749;SDS011;10535;50.664;4.564;2023-04-25T01:09:15;15.77;;;3.10;;
20749;SDS011;10535;50.664;4.564;2023-04-25T01:11:41;12.17;;;3.20;;
20749;SDS011;10535;50.664;4.564;2023-04-25T01:14:06;11.53;;;3.37;;
20749;SDS011;10535;50.664;4.564;2023-04-25T01:16:32;7.43;;;3.10;;
20749;SDS011;10535;50.664;4.564;2023-04-25T01:18:58;8.47;;;2.80;;
20749;SDS011;10535;50.664;4.564;2023-04-25T01:21:24;9.93;;;3.87;;
20749;SDS011;10535;50.664;4.564;2023-04-25T01:23:52;12.83;;;3.60;;
20749;SDS011;10535;50.664;4.564;2023-04-25T01:26:19;4.20;;;2.30;;
20749;SDS011;10535;50.664;4.564;2023-04-25T01:28:46;6.50;;;3.13;;
20749;SDS011;10535;50.664;4.564;2023-04-25T01:31:13;5.07;;;2.57;;
20749;SDS011;10535;50.664;4.564;2023-04-25T01:33:40;4.93;;;2.60;;
20749;SDS011;10535;50.664;4.564;2023-04-25T01:36:06;14.53;;;3.43;;
20749;SDS011;10535;50.664;4.564;2023-04-25T01:38:32;5.83;;;3.00;;
20749;SDS011;10535;50.664;4.564;2023-04-25T01:40:59;6.23;;;2.50;;
20749;SDS011;10535;50.664;4.564;2023-04-25T01:43:25;6.77;;;2.70;;
20749;SDS011;10535;50.664;4.564;2023-04-25T01:45:51;13.43;;;2.73;;
20749;SDS011;10535;50.664;4.564;2023-04-25T01:48:17;9.23;;;2.93;;
20749;SDS011;10535;50.664;4.564;2023-04-25T01:50:43;9.53;;;2.37;;
20749;SDS011;10535;50.664;4.564;2023-04-25T01:53:09;11.37;;;3.03;;
20749;SDS011;10535;50.664;4.564;2023-04-25T01:55:37;7.70;;;2.80;;
20749;SDS011;10535;50.664;4.564;2023-04-25T01:58:02;7.20;;;2.67;;
20749;SDS011;10535;50.664;4.564;2023-04-25T02:00:28;19.87;;;4.27;;
20749;SDS011;10535;50.664;4.564;2023-04-25T02:02:57;12.67;;;3.23;;
20749;SDS011;10535;50.664;4.564;2023-04-25T02:05:23;12.43;;;3.50;;
20749;SDS011;10535;50.664;4.564;2023-04-25T02:07:49;9.57;;;3.70;;
20749;SDS011;10535;50.664;4.564;2023-04-25T02:10:14;4.63;;;2.70;;
20749;SDS011;10535;50.664;4.564;2023-04-25T02:12:40;12.10;;;2.90;;
20749;SDS011;10535;50.664;4.564;2023-04-25T02:15:06;9.30;;;3.70;;
20749;SDS011;10535;50.664;4.564;2023-04-25T02:17:32;17.43;;;3.43;;
20749;SDS011;10535;50.664;4.564;2023-04-25T02:19:58;17.10;;;3.77;;
20749;SDS011;10535;50.664;4.564;2023-04-25T02:22:24;12.87;;;3.10;;
20749;SDS011;10535;50.664;4.564;2023-04-25T02:24:51;3.57;;;2.33;;
20749;SDS011;10535;50.664;4.564;2023-04-25T02:27:17;9.67;;;3.27;;
20749;SDS011;10535;50.664;4.564;2023-04-25T02:29:43;6.87;;;2.77;;
20749;SDS011;10535;50.664;4.564;2023-04-25T02:32:09;5.50;;;3.10;;
20749;SDS011;10535;50.664;4.564;2023-04-25T02:34:34;7.67;;;3.27;;
20749;SDS011;10535;50.664;4.564;2023-04-25T02:37:00;12.97;;;3.80;;
20749;SDS011;10535;50.664;4.564;2023-04-25T02:39:25;9.67;;;3.47;;
20749;SDS011;10535;50.664;4.564;2023-04-25T02:41:52;9.47;;;3.57;;
20749;SDS011;10535;50.664;4.564;2023-04-25T02:44:18;10.63;;;3.67;;
20749;SDS011;10535;50.664;4.564;2023-04-25T02:46:43;6.80;;;3.20;;
20749;SDS011;10535;50.664;4.564;2023-04-25T02:49:09;9.20;;;3.33;;
20749;SDS011;10535;50.664;4.564;2023-04-25T02:51:34;15.90;;;3.03;;
20749;SDS011;10535;50.664;4.564;2023-04-25T02:54:00;14.10;;;3.43;;
20749;SDS011;10535;50.664;4.564;2023-04-25T02:56:26;11.43;;;4.10;;
20749;SDS011;10535;50.664;4.564;2023-04-25T02:58:52;12.47;;;3.90;;
20749;SDS011;10535;50.664;4.564;2023-04-25T03:01:18;15.30;;;4.23;;
20749;SDS011;10535;50.664;4.564;2023-04-25T03:03:43;10.50;;;3.23;;
20749;SDS011;10535;50.664;4.564;2023-04-25T03:06:09;7.73;;;2.80;;
20749;SDS011;10535;50.664;4.564;2023-04-25T03:08:35;7.37;;;3.67;;
20749;SDS011;10535;50.664;4.564;2023-04-25T03:11:00;12.77;;;3.53;;
20749;SDS011;10535;50.664;4.564;2023-04-25T03:13:26;13.90;;;3.93;;
20749;SDS011;10535;50.664;4.564;2023-04-25T03:15:52;10.63;;;3.97;;
20749;SDS011;10535;50.664;4.564;2023-04-25T03:18:18;9.83;;;3.07;;
20749;SDS011;10535;50.664;4.564;2023-04-25T03:20:45;9.93;;;3.17;;
20749;SDS011;10535;50.664;4.564;2023-04-25T03:23:11;6.43;;;3.03;;
20749;SDS011;10535;50.664;4.564;2023-04-25T03:25:37;9.83;;;3.73;;
20749;SDS011;10535;50.664;4.564;2023-04-25T03:28:02;9.47;;;3.37;;
20749;SDS011;10535;50.664;4.564;2023-04-25T03:30:28;8.30;;;2.73;;
20749;SDS011;10535;50.664;4.564;2023-04-25T03:32:54;11.60;;;3.30;;
20749;SDS011;10535;50.664;4.564;2023-04-25T03:35:20;4.20;;;2.70;;
20749;SDS011;10535;50.664;4.564;2023-04-25T03:37:45;6.73;;;3.23;;
20749;SDS011;10535;50.664;4.564;2023-04-25T03:40:11;5.47;;;3.10;;
20749;SDS011;10535;50.664;4.564;2023-04-25T03:42:37;8.27;;;2.97;;
20749;SDS011;10535;50.664;4.564;2023-04-25T03:45:03;11.07;;;3.67;;
20749;SDS011;10535;50.664;4.564;2023-04-25T03:47:29;7.40;;;2.63;;
20749;SDS011;10535;50.664;4.564;2023-04-25T03:49:54;13.57;;;3.37;;
20749;SDS011;10535;50.664;4.564;2023-04-25T03:52:20;9.07;;;3.20;;
20749;SDS011;10535;50.664;4.564;2023-04-25T03:54:45;14.77;;;3.13;;
20749;SDS011;10535;50.664;4.564;2023-04-25T03:57:11;7.87;;;3.10;;
20749;SDS011;10535;50.664;4.564;2023-04-25T03:59:37;6.73;;;3.07;;
20749;SDS011;10535;50.664;4.564;2023-04-25T04:02:03;8.40;;;2.60;;
20749;SDS011;10535;50.664;4.564;2023-04-25T04:04:28;10.23;;;3.27;;
20749;SDS011;10535;50.664;4.564;2023-04-25T04:06:56;3.87;;;2.53;;
20749;SDS011;10535;50.664;4.564;2023-04-25T04:09:21;8.13;;;3.13;;
20749;SDS011;10535;50.664;4.564;2023-04-25T04:11:47;6.90;;;3.33;;
20749;SDS011;10535;50.664;4.564;2023-04-25T04:14:13;14.33;;;4.53;;
20749;SDS011;10535;50.664;4.564;2023-04-25T04:16:38;13.10;;;3.07;;
20749;SDS011;10535;50.664;4.564;2023-04-25T04:19:04;7.50;;;3.53;;
20749;SDS011;10535;50.664;4.564;2023-04-25T04:21:30;13.73;;;4.03;;
20749;SDS011;10535;50.664;4.564;2023-04-25T04:23:56;6.97;;;2.97;;
20749;SDS011;10535;50.664;4.564;2023-04-25T04:26:24;7.37;;;3.00;;
20749;SDS011;10535;50.664;4.564;2023-04-25T04:28:51;13.13;;;3.43;;
20749;SDS011;10535;50.664;4.564;2023-04-25T04:31:19;7.97;;;3.53;;
20749;SDS011;10535;50.664;4.564;2023-04-25T04:33:50;6.60;;;2.67;;
20749;SDS011;10535;50.664;4.564;2023-04-25T04:36:16;18.07;;;3.17;;
20749;SDS011;10535;50.664;4.564;2023-04-25T04:38:48;8.87;;;3.73;;
20749;SDS011;10535;50.664;4.564;2023-04-25T04:41:14;9.17;;;4.07;;
20749;SDS011;10535;50.664;4.564;2023-04-25T04:43:39;6.73;;;3.03;;
20749;SDS011;10535;50.664;4.564;2023-04-25T04:46:05;10.70;;;3.77;;
20749;SDS011;10535;50.664;4.564;2023-04-25T04:48:31;12.53;;;3.63;;
20749;SDS011;10535;50.664;4.564;2023-04-25T04:51:00;12.60;;;3.83;;
20749;SDS011;10535;50.664;4.564;2023-04-25T04:53:56;11.83;;;3.60;;
20749;SDS011;10535;50.664;4.564;2023-04-25T04:56:23;10.07;;;3.17;;
20749;SDS011;10535;50.664;4.564;2023-04-25T04:58:52;10.77;;;3.70;;
20749;SDS011;10535;50.664;4.564;2023-04-25T05:01:20;9.13;;;4.20;;
20749;SDS011;10535;50.664;4.564;2023-04-25T05:03:46;8.37;;;2.93;;
20749;SDS011;10535;50.664;4.564;2023-04-25T05:06:14;12.53;;;3.33;;
20749;SDS011;10535;50.664;4.564;2023-04-25T05:08:41;8.17;;;3.20;;
20749;SDS011;10535;50.664;4.564;2023-04-25T05:11:07;7.37;;;3.43;;
20749;SDS011;10535;50.664;4.564;2023-04-25T05:13:34;14.47;;;3.73;;
20749;SDS011;10535;50.664;4.564;2023-04-25T05:16:02;10.00;;;3.77;;
20749;SDS011;10535;50.664;4.564;2023-04-25T05:18:31;15.13;;;3.70;;
20749;SDS011;10535;50.664;4.564;2023-04-25T05:20:59;12.13;;;3.83;;
20749;SDS011;10535;50.664;4.564;2023-04-25T05:23:26;10.13;;;4.77;;
20749;SDS011;10535;50.664;4.564;2023-04-25T05:25:56;9.77;;;4.17;;
20749;SDS011;10535;50.664;4.564;2023-04-25T05:28:26;7.30;;;2.93;;
20749;SDS011;10535;50.664;4.564;2023-04-25T05:30:57;10.17;;;4.50;;
20749;SDS011;10535;50.664;4.564;2023-04-25T05:33:25;9.33;;;3.23;;
20749;SDS011;10535;50.664;4.564;2023-04-25T05:35:57;8.43;;;2.73;;
20749;SDS011;10535;50.664;4.564;2023-04-25T05:38:23;8.30;;;4.00;;
20749;SDS011;10535;50.664;4.564;2023-04-25T05:40:53;8.50;;;3.93;;
20749;SDS011;10535;50.664;4.564;2023-04-25T05:43:21;6.73;;;3.33;;
20749;SDS011;10535;50.664;4.564;2023-04-25T05:45:48;7.90;;;3.30;;
20749;SDS011;10535;50.664;4.564;2023-04-25T05:48:14;8.57;;;2.87;;
20749;SDS011;10535;50.664;4.564;2023-04-25T05:50:40;10.13;;;3.10;;
20749;SDS011;10535;50.664;4.564;2023-04-25T05:53:09;8.33;;;2.83;;
20749;SDS011;10535;50.664;4.564;2023-04-25T05:55:46;12.97;;;3.57;;
20749;SDS011;10535;50.664;4.564;2023-04-25T05:58:12;9.97;;;3.30;;
20749;SDS011;10535;50.664;4.564;2023-04-25T06:00:38;8.83;;;3.70;;
20749;SDS011;10535;50.664;4.564;2023-04-25T06:03:07;12.53;;;3.27;;
20749;SDS011;10535;50.664;4.564;2023-04-25T06:06:03;11.53;;;3.37;;
20749;SDS011;10535;50.664;4.564;2023-04-25T06:08:29;9.37;;;3.30;;
20749;SDS011;10535;50.664;4.564;2023-04-25T06:10:59;8.20;;;3.20;;
20749;SDS011;10535;50.664;4.564;2023-04-25T06:15:55;14.87;;;4.33;;
20749;SDS011;10535;50.664;4.564;2023-04-25T06:18:21;9.40;;;3.50;;
20749;SDS011;10535;50.664;4.564;2023-04-25T06:20:48;5.10;;;3.27;;
20749;SDS011;10535;50.664;4.564;2023-04-25T06:23:14;11.10;;;4.27;;
20749;SDS011;10535;50.664;4.564;2023-04-25T06:25:41;8.40;;;3.57;;
20749;SDS011;10535;50.664;4.564;2023-04-25T06:28:08;9.97;;;3.50;;
20749;SDS011;10535;50.664;4.564;2023-04-25T06:30:39;8.60;;;2.90;;
20749;SDS011;10535;50.664;4.564;2023-04-25T06:33:09;14.83;;;3.80;;
20749;SDS011;10535;50.664;4.564;2023-04-25T06:35:41;11.33;;;4.37;;
20749;SDS011;10535;50.664;4.564;2023-04-25T06:38:07;7.13;;;3.03;;
20749;SDS011;10535;50.664;4.564;2023-04-25T06:40:34;13.00;;;4.53;;
20749;SDS011;10535;50.664;4.564;2023-04-25T06:43:00;12.83;;;3.60;;
20749;SDS011;10535;50.664;4.564;2023-04-25T06:45:26;19.07;;;3.10;;
20749;SDS011;10535;50.664;4.564;2023-04-25T06:47:53;9.63;;;4.17;;
20749;SDS011;10535;50.664;4.564;2023-04-25T06:50:24;9.30;;;4.57;;
20749;SDS011;10535;50.664;4.564;2023-04-25T06:52:52;13.23;;;4.20;;
20749;SDS011;10535;50.664;4.564;2023-04-25T06:55:18;5.00;;;2.43;;
20749;SDS011;10535;50.664;4.564;2023-04-25T06:57:44;11.20;;;4.30;;
20749;SDS011;10535;50.664;4.564;2023-04-25T07:00:35;12.13;;;3.83;;
20749;SDS011;10535;50.664;4.564;2023-04-25T07:03:02;6.77;;;2.57;;
20749;SDS011;10535;50.664;4.564;2023-04-25T07:05:30;9.80;;;3.50;;
20749;SDS011;10535;50.664;4.564;2023-04-25T07:07:56;7.87;;;3.33;;
20749;SDS011;10535;50.664;4.564;2023-04-25T07:10:22;7.53;;;2.70;;
20749;SDS011;10535;50.664;4.564;2023-04-25T07:12:51;15.00;;;3.33;;
20749;SDS011;10535;50.664;4.564;2023-04-25T07:15:17;6.40;;;2.83;;
20749;SDS011;10535;50.664;4.564;2023-04-25T07:17:44;10.43;;;3.00;;
20749;SDS011;10535;50.664;4.564;2023-04-25T07:20:48;13.63;;;3.07;;
20749;SDS011;10535;50.664;4.564;2023-04-25T07:24:00;9.30;;;3.53;;
20749;SDS011;10535;50.664;4.564;2023-04-25T07:27:09;5.37;;;2.73;;
20749;SDS011;10535;50.664;4.564;2023-04-25T07:29:39;12.03;;;3.53;;
20749;SDS011;10535;50.664;4.564;2023-04-25T07:32:05;6.63;;;2.93;;
20749;SDS011;10535;50.664;4.564;2023-04-25T07:34:32;14.00;;;2.93;;
20749;SDS011;10535;50.664;4.564;2023-04-25T07:37:02;5.10;;;2.97;;
20749;SDS011;10535;50.664;4.564;2023-04-25T07:39:28;9.50;;;3.57;;
20749;SDS011;10535;50.664;4.564;2023-04-25T07:41:53;4.97;;;2.80;;
20749;SDS011;10535;50.664;4.564;2023-04-25T07:44:19;12.23;;;4.30;;
20749;SDS011;10535;50.664;4.564;2023-04-25T07:46:46;8.70;;;2.80;;
20749;SDS011;10535;50.664;4.564;2023-04-25T07:49:12;12.67;;;4.27;;
20749;SDS011;10535;50.664;4.564;2023-04-25T07:51:38;12.27;;;3.73;;
20749;SDS011;10535;50.664;4.564;2023-04-25T07:54:04;13.07;;;3.20;;
20749;SDS011;10535;50.664;4.564;2023-04-25T07:56:35;11.03;;;3.27;;
20749;SDS011;10535;50.664;4.564;2023-04-25T07:59:21;19.97;;;3.33;;
20749;SDS011;10535;50.664;4.564;2023-04-25T08:02:17;9.30;;;3.47;;
20749;SDS011;10535;50.664;4.564;2023-04-25T08:04:44;8.27;;;3.47;;
20749;SDS011;10535;50.664;4.564;2023-04-25T08:07:16;15.43;;;3.77;;
20749;SDS011;10535;50.664;4.564;2023-04-25T08:10:05;10.10;;;3.40;;
20749;SDS011;10535;50.664;4.564;2023-04-25T08:12:36;11.67;;;4.07;;
20749;SDS011;10535;50.664;4.564;2023-04-25T08:15:22;9.73;;;3.97;;
20749;SDS011;10535;50.664;4.564;2023-04-25T08:17:47;12.17;;;3.90;;
20749;SDS011;10535;50.664;4.564;2023-04-25T08:20:13;9.90;;;3.10;;
20749;SDS011;10535;50.664;4.564;2023-04-25T08:22:39;9.67;;;3.70;;
20749;SDS011;10535;50.664;4.564;2023-04-25T08:25:08;9.03;;;5.53;;
20749;SDS011;10535;50.664;4.564;2023-04-25T08:27:33;7.93;;;3.97;;
20749;SDS011;10535;50.664;4.564;2023-04-25T08:30:01;9.93;;;3.50;;
20749;SDS011;10535;50.664;4.564;2023-04-25T08:33:00;8.90;;;3.43;;
20749;SDS011;10535;50.664;4.564;2023-04-25T08:35:30;10.80;;;3.00;;
20749;SDS011;10535;50.664;4.564;2023-04-25T08:37:58;10.07;;;3.83;;
20749;SDS011;10535;50.664;4.564;2023-04-25T08:40:23;6.23;;;2.90;;
20749;SDS011;10535;50.664;4.564;2023-04-25T08:42:55;6.63;;;2.50;;
20749;SDS011;10535;50.664;4.564;2023-04-25T08:45:22;14.90;;;4.73;;
20749;SDS011;10535;50.664;4.564;2023-04-25T08:47:51;8.47;;;2.67;;
20749;SDS011;10535;50.664;4.564;2023-04-25T08:50:18;6.27;;;2.70;;
20749;SDS011;10535;50.664;4.564;2023-04-25T08:52:46;3.97;;;2.83;;
20749;SDS011;10535;50.664;4.564;2023-04-25T08:55:17;6.23;;;2.90;;
20749;SDS011;10535;50.664;4.564;2023-04-25T08:57:46;8.27;;;2.23;;
20749;SDS011;10535;50.664;4.564;2023-04-25T09:00:35;6.70;;;2.63;;
20749;SDS011;10535;50.664;4.564;2023-04-25T09:03:01;13.57;;;3.20;;
20749;SDS011;10535;50.664;4.564;2023-04-25T09:05:28;4.77;;;2.10;;
20749;SDS011;10535;50.664;4.564;2023-04-25T09:07:54;6.03;;;2.43;;
20749;SDS011;10535;50.664;4.564;2023-04-25T09:10:27;7.63;;;2.40;;
20749;SDS011;10535;50.664;4.564;2023-04-25T09:13:05;3.53;;;1.67;;
20749;SDS011;10535;50.664;4.564;2023-04-25T09:15:49;8.07;;;2.50;;
20749;SDS011;10535;50.664;4.564;2023-04-25T09:20:53;8.60;;;3.07;;
20749;SDS011;10535;50.664;4.564;2023-04-25T09:23:20;6.10;;;1.83;;
20749;SDS011;10535;50.664;4.564;2023-04-25T09:25:49;7.93;;;3.37;;
20749;SDS011;10535;50.664;4.564;2023-04-25T09:28:16;6.13;;;2.33;;
20749;SDS011;10535;50.664;4.564;2023-04-25T09:30:47;11.67;;;1.83;;
20749;SDS011;10535;50.664;4.564;2023-04-25T09:33:13;8.40;;;3.10;;
20749;SDS011;10535;50.664;4.564;2023-04-25T09:35:45;4.27;;;1.80;;
20749;SDS011;10535;50.664;4.564;2023-04-25T09:40:49;6.47;;;2.60;;
20749;SDS011;10535;50.664;4.564;2023-04-25T09:43:20;3.27;;;2.37;;
20749;SDS011;10535;50.664;4.564;2023-04-25T09:45:55;5.13;;;2.70;;
20749;SDS011;10535;50.664;4.564;2023-04-25T09:48:24;5.50;;;2.30;;
20749;SDS011;10535;50.664;4.564;2023-04-25T09:53:50;6.30;;;2.33;;
20749;SDS011;10535;50.664;4.564;2023-04-25T09:56:16;4.83;;;2.37;;
20749;SDS011;10535;50.664;4.564;2023-04-25T09:58:43;7.13;;;2.07;;
20749;SDS011;10535;50.664;4.564;2023-04-25T10:01:11;14.83;;;2.80;;
20749;SDS011;10535;50.664;4.564;2023-04-25T10:03:39;5.13;;;2.00;;
20749;SDS011;10535;50.664;4.564;2023-04-25T10:06:09;4.60;;;2.33;;
20749;SDS011;10535;50.664;4.564;2023-04-25T10:08:45;2.20;;;2.00;;
20749;SDS011;10535;50.664;4.564;2023-04-25T10:11:14;7.30;;;2.43;;
20749;SDS011;10535;50.664;4.564;2023-04-25T10:13:41;5.30;;;1.70;;
20749;SDS011;10535;50.664;4.564;2023-04-25T10:16:09;3.67;;;2.00;;
20749;SDS011;10535;50.664;4.564;2023-04-25T10:18:36;11.53;;;2.37;;
20749;SDS011;10535;50.664;4.564;2023-04-25T10:21:03;6.40;;;1.90;;
20749;SDS011;10535;50.664;4.564;2023-04-25T10:23:34;2.30;;;1.50;;
20749;SDS011;10535;50.664;4.564;2023-04-25T10:26:20;13.50;;;2.43;;
20749;SDS011;10535;50.664;4.564;2023-04-25T10:28:55;6.10;;;1.43;;
20749;SDS011;10535;50.664;4.564;2023-04-25T10:31:44;1.83;;;1.70;;
20749;SDS011;10535;50.664;4.564;2023-04-25T10:34:11;1.80;;;1.43;;
20749;SDS011;10535;50.664;4.564;2023-04-25T10:36:37;5.57;;;2.27;;
20749;SDS011;10535;50.664;4.564;2023-04-25T10:39:06;3.27;;;1.80;;
20749;SDS011;10535;50.664;4.564;2023-04-25T10:41:46;6.03;;;2.33;;
20749;SDS011;10535;50.664;4.564;2023-04-25T10:44:16;5.73;;;2.30;;
20749;SDS011;10535;50.664;4.564;2023-04-25T10:46:42;5.33;;;1.63;;
20749;SDS011;10535;50.664;4.564;2023-04-25T10:49:10;3.33;;;1.53;;
20749;SDS011;10535;50.664;4.564;2023-04-25T10:51:58;8.03;;;1.70;;
20749;SDS011;10535;50.664;4.564;2023-04-25T10:54:39;2.07;;;1.20;;
20749;SDS011;10535;50.664;4.564;2023-04-25T10:57:06;2.30;;;1.20;;
20749;SDS011;10535;50.664;4.564;2023-04-25T10:59:31;1.97;;;1.40;;
20749;SDS011;10535;50.664;4.564;2023-04-25T11:01:57;5.93;;;2.17;;
20749;SDS011;10535;50.664;4.564;2023-04-25T11:09:28;4.90;;;1.77;;
20749;SDS011;10535;50.664;4.564;2023-04-25T11:11:55;5.03;;;2.00;;
20749;SDS011;10535;50.664;4.564;2023-04-25T11:14:22;13.23;;;1.80;;
20749;SDS011;10535;50.664;4.564;2023-04-25T11:16:52;8.30;;;1.87;;
20749;SDS011;10535;50.664;4.564;2023-04-25T11:19:22;6.20;;;1.90;;
20749;SDS011;10535;50.664;4.564;2023-04-25T11:21:49;5.03;;;1.80;;
20749;SDS011;10535;50.664;4.564;2023-04-25T11:24:18;4.33;;;2.30;;
20749;SDS011;10535;50.664;4.564;2023-04-25T11:26:46;4.43;;;2.00;;
20749;SDS011;10535;50.664;4.564;2023-04-25T11:29:13;5.73;;;2.33;;
20749;SDS011;10535;50.664;4.564;2023-04-25T11:31:39;5.87;;;1.60;;
20749;SDS011;10535;50.664;4.564;2023-04-25T11:34:09;5.33;;;1.43;;
20749;SDS011;10535;50.664;4.564;2023-04-25T11:36:34;2.60;;;1.60;;
20749;SDS011;10535;50.664;4.564;2023-04-25T11:39:03;3.73;;;1.53;;
20749;SDS011;10535;50.664;4.564;2023-04-25T11:41:30;1.10;;;1.03;;
20749;SDS011;10535;50.664;4.564;2023-04-25T11:43:56;1.63;;;1.50;;
20749;SDS011;10535;50.664;4.564;2023-04-25T11:46:22;3.20;;;1.67;;
20749;SDS011;10535;50.664;4.564;2023-04-25T11:48:48;4.40;;;1.40;;
20749;SDS011;10535;50.664;4.564;2023-04-25T11:51:15;3.20;;;1.97;;
20749;SDS011;10535;50.664;4.564;2023-04-25T11:53:41;4.30;;;2.10;;
20749;SDS011;10535;50.664;4.564;2023-04-25T11:56:09;6.30;;;2.13;;
20749;SDS011;10535;50.664;4.564;2023-04-25T12:01:28;6.63;;;1.60;;
20749;SDS011;10535;50.664;4.564;2023-04-25T12:03:55;4.57;;;1.50;;
20749;SDS011;10535;50.664;4.564;2023-04-25T12:06:25;2.00;;;1.50;;
20749;SDS011;10535;50.664;4.564;2023-04-25T12:09:00;3.73;;;1.23;;
20749;SDS011;10535;50.664;4.564;2023-04-25T12:11:26;6.70;;;2.10;;
20749;SDS011;10535;50.664;4.564;2023-04-25T12:13:52;4.07;;;1.47;;
20749;SDS011;10535;50.664;4.564;2023-04-25T12:16:18;9.10;;;1.70;;
20749;SDS011;10535;50.664;4.564;2023-04-25T12:18:44;4.17;;;1.40;;
20749;SDS011;10535;50.664;4.564;2023-04-25T12:21:10;5.17;;;1.30;;
20749;SDS011;10535;50.664;4.564;2023-04-25T12:23:38;2.27;;;1.17;;
20749;SDS011;10535;50.664;4.564;2023-04-25T12:26:04;6.20;;;1.93;;
20749;SDS011;10535;50.664;4.564;2023-04-25T12:28:32;4.23;;;1.57;;
20749;SDS011;10535;50.664;4.564;2023-04-25T12:31:04;6.87;;;1.43;;
20749;SDS011;10535;50.664;4.564;2023-04-25T12:33:40;6.70;;;1.33;;
20749;SDS011;10535;50.664;4.564;2023-04-25T12:36:07;8.23;;;1.47;;
20749;SDS011;10535;50.664;4.564;2023-04-25T12:38:40;7.33;;;1.07;;
20749;SDS011;10535;50.664;4.564;2023-04-25T12:41:07;1.43;;;1.10;;
20749;SDS011;10535;50.664;4.564;2023-04-25T12:43:33;3.30;;;1.23;;
20749;SDS011;10535;50.664;4.564;2023-04-25T12:45:59;2.73;;;1.50;;
20749;SDS011;10535;50.664;4.564;2023-04-25T12:48:25;1.20;;;1.10;;
20749;SDS011;10535;50.664;4.564;2023-04-25T12:50:51;3.53;;;1.47;;
20749;SDS011;10535;50.664;4.564;2023-04-25T12:53:17;3.17;;;1.47;;
20749;SDS011;10535;50.664;4.564;2023-04-25T12:55:44;5.67;;;1.30;;
20749;SDS011;10535;50.664;4.564;2023-04-25T12:58:13;1.33;;;1.10;;
20749;SDS011;10535;50.664;4.564;2023-04-25T13:00:40;3.47;;;1.27;;
20749;SDS011;10535;50.664;4.564;2023-04-25T13:03:05;3.27;;;1.80;;
20749;SDS011;10535;50.664;4.564;2023-04-25T13:05:31;4.00;;;0.90;;
20749;SDS011;10535;50.664;4.564;2023-04-25T13:07:57;1.27;;;0.83;;
20749;SDS011;10535;50.664;4.564;2023-04-25T13:10:24;2.20;;;1.07;;
20749;SDS011;10535;50.664;4.564;2023-04-25T13:12:50;7.17;;;1.10;;
20749;SDS011;10535;50.664;4.564;2023-04-25T13:15:15;1.60;;;0.97;;
20749;SDS011;10535;50.664;4.564;2023-04-25T13:17:41;0.90;;;0.90;;
20749;SDS011;10535;50.664;4.564;2023-04-25T13:20:07;2.07;;;0.87;;
20749;SDS011;10535;50.664;4.564;2023-04-25T13:22:34;4.90;;;1.30;;
20749;SDS011;10535;50.664;4.564;2023-04-25T13:25:04;6.53;;;1.20;;
20749;SDS011;10535;50.664;4.564;2023-04-25T13:27:31;4.23;;;1.33;;
20749;SDS011;10535;50.664;4.564;2023-04-25T13:29:59;6.73;;;1.60;;
20749;SDS011;10535;50.664;4.564;2023-04-25T13:32:25;1.37;;;0.90;;
20749;SDS011;10535;50.664;4.564;2023-04-25T13:34:51;1.30;;;1.20;;
20749;SDS011;10535;50.664;4.564;2023-04-25T13:37:17;1.20;;;1.10;;
20749;SDS011;10535;50.664;4.564;2023-04-25T13:39:43;1.37;;;1.00;;
20749;SDS011;10535;50.664;4.564;2023-04-25T13:42:09;0.73;;;0.70;;
20749;SDS011;10535;50.664;4.564;2023-04-25T13:44:34;1.87;;;1.50;;
20749;SDS011;10535;50.664;4.564;2023-04-25T13:47:00;1.30;;;0.60;;
20749;SDS011;10535;50.664;4.564;2023-04-25T13:49:26;2.07;;;1.00;;
20749;SDS011;10535;50.664;4.564;2023-04-25T13:51:51;1.17;;;0.77;;
20749;SDS011;10535;50.664;4.564;2023-04-25T13:54:17;3.13;;;0.97;;
20749;SDS011;10535;50.664;4.564;2023-04-25T13:56:43;2.27;;;1.10;;
20749;SDS011;10535;50.664;4.564;2023-04-25T13:59:09;2.00;;;1.13;;
20749;SDS011;10535;50.664;4.564;2023-04-25T14:01:35;1.90;;;1.13;;
20749;SDS011;10535;50.664;4.564;2023-04-25T14:04:01;2.40;;;1.03;;
20749;SDS011;10535;50.664;4.564;2023-04-25T14:06:28;1.77;;;1.00;;
20749;SDS011;10535;50.664;4.564;2023-04-25T14:08:54;1.37;;;0.60;;
20749;SDS011;10535;50.664;4.564;2023-04-25T14:11:21;2.13;;;1.17;;
20749;SDS011;10535;50.664;4.564;2023-04-25T14:13:47;2.53;;;1.30;;
20749;SDS011;10535;50.664;4.564;2023-04-25T14:16:14;1.10;;;0.93;;
20749;SDS011;10535;50.664;4.564;2023-04-25T14:18:40;1.40;;;1.30;;
20749;SDS011;10535;50.664;4.564;2023-04-25T14:21:06;1.50;;;0.90;;
20749;SDS011;10535;50.664;4.564;2023-04-25T14:23:32;4.97;;;1.43;;
20749;SDS011;10535;50.664;4.564;2023-04-25T14:25:57;2.07;;;1.03;;
20749;SDS011;10535;50.664;4.564;2023-04-25T14:28:23;3.93;;;0.90;;
20749;SDS011;10535;50.664;4.564;2023-04-25T14:30:49;2.50;;;0.73;;
20749;SDS011;10535;50.664;4.564;2023-04-25T14:33:14;3.13;;;0.80;;
20749;SDS011;10535;50.664;4.564;2023-04-25T14:35:40;2.20;;;0.93;;
20749;SDS011;10535;50.664;4.564;2023-04-25T14:38:06;4.27;;;0.90;;
20749;SDS011;10535;50.664;4.564;2023-04-25T14:40:32;2.10;;;1.00;;
20749;SDS011;10535;50.664;4.564;2023-04-25T14:42:58;0.80;;;0.80;;
20749;SDS011;10535;50.664;4.564;2023-04-25T14:45:24;1.37;;;1.10;;
20749;SDS011;10535;50.664;4.564;2023-04-25T14:47:49;1.60;;;1.20;;
20749;SDS011;10535;50.664;4.564;2023-04-25T14:50:15;4.90;;;1.07;;
20749;SDS011;10535;50.664;4.564;2023-04-25T14:52:41;1.43;;;1.20;;
20749;SDS011;10535;50.664;4.564;2023-04-25T14:55:08;2.83;;;1.10;;
20749;SDS011;10535;50.664;4.564;2023-04-25T14:57:34;1.80;;;0.80;;
20749;SDS011;10535;50.664;4.564;2023-04-25T15:00:00;2.63;;;0.93;;
20749;SDS011;10535;50.664;4.564;2023-04-25T15:02:26;1.37;;;0.80;;
20749;SDS011;10535;50.664;4.564;2023-04-25T15:04:53;2.87;;;1.10;;
20749;SDS011;10535;50.664;4.564;2023-04-25T15:07:20;4.83;;;1.90;;